createdAt,value
2022-11-08T00:00:13.360Z,93407.88
2022-11-08T00:02:44.452Z,93385.84
2022-11-08T00:05:29.886Z,93396.41
2022-11-08T00:08:15.216Z,93406.28
2022-11-08T00:11:00.502Z,93406.94
2022-11-08T00:13:45.686Z,93391.84
2022-11-08T00:16:12.347Z,93384.03
2022-11-08T00:18:38.951Z,93391.25
2022-11-08T00:21:05.612Z,93371.19
2022-11-08T00:23:32.263Z,93399.91
2022-11-08T00:25:58.897Z,93401.72
2022-11-08T00:28:25.474Z,93391.25
2022-11-08T00:30:52.120Z,93379.34
2022-11-08T00:33:18.819Z,93388.25
2022-11-08T00:35:45.433Z,93387.94
2022-11-08T00:38:12.158Z,93388.25
2022-11-08T00:40:38.777Z,93398.34
2022-11-08T00:43:05.352Z,93386.91
2022-11-08T00:45:32.019Z,93384.63
2022-11-08T00:47:58.617Z,93383.78
2022-11-08T00:50:25.222Z,93385.31
2022-11-08T00:52:51.818Z,93387.25
2022-11-08T00:55:18.406Z,93386.63
2022-11-08T00:57:58.956Z,93373.53
2022-11-08T01:00:26.181Z,93382.69
2022-11-08T01:03:12.763Z,93384.53
2022-11-08T01:05:39.600Z,93384.69
2022-11-08T01:08:06.174Z,93394.91
2022-11-08T01:10:32.957Z,93384.34
2022-11-08T01:12:59.740Z,93379.53
2022-11-08T01:15:26.572Z,93398.19
2022-11-08T01:17:53.225Z,93388.41
2022-11-08T01:20:19.875Z,93393.16
2022-11-08T01:22:46.420Z,93388.75
2022-11-08T01:25:13.104Z,93386.78
2022-11-08T01:27:39.755Z,93373.22
2022-11-08T01:30:07.023Z,93385.53
2022-11-08T01:32:38.869Z,93360.94
2022-11-08T01:35:05.982Z,93387.19
2022-11-08T01:37:32.585Z,93392.91
2022-11-08T01:39:59.201Z,93386.81
2022-11-08T01:42:31.989Z,93383.22
2022-11-08T01:45:06.129Z,93377.09
2022-11-08T01:47:32.805Z,93375.75
2022-11-08T01:50:16.658Z,93367.22
2022-11-08T01:52:50.031Z,93376.06
2022-11-08T01:55:25.921Z,93356.91
2022-11-08T01:58:02.029Z,93367.84
2022-11-08T02:00:29.018Z,93356.56
2022-11-08T02:03:02.001Z,93364.56
2022-11-08T02:05:30.565Z,93292.72
2022-11-08T02:08:05.363Z,93355.72
2022-11-08T02:10:35.955Z,93342.00
2022-11-08T02:13:05.532Z,93354.72
2022-11-08T02:15:34.030Z,93348.28
2022-11-08T02:18:00.854Z,93345.16
2022-11-08T02:20:27.685Z,93329.44
2022-11-08T02:23:17.219Z,93353.06
2022-11-08T02:25:43.910Z,93331.63
2022-11-08T02:28:10.511Z,93344.06
2022-11-08T02:30:38.678Z,93328.34
2022-11-08T02:33:20.278Z,93339.53
2022-11-08T02:35:54.760Z,93336.84
2022-11-08T02:38:22.612Z,93315.88
2022-11-08T02:40:54.464Z,93333.19
2022-11-08T02:43:22.757Z,93327.94
2022-11-08T02:45:50.373Z,93299.63
2022-11-08T02:48:19.164Z,93314.44
2022-11-08T02:50:46.844Z,93325.38
2022-11-08T02:53:13.515Z,93321.31
2022-11-08T02:55:40.148Z,93319.56
2022-11-08T02:58:06.899Z,93303.59
2022-11-08T03:00:34.613Z,93310.84
2022-11-08T03:03:03.455Z,93307.00
2022-11-08T03:05:30.609Z,93287.19
2022-11-08T03:07:57.380Z,93294.03
2022-11-08T03:10:26.334Z,93301.44
2022-11-08T03:12:56.380Z,93304.06
2022-11-08T03:15:23.047Z,93298.53
2022-11-08T03:17:49.661Z,93297.59
2022-11-08T03:20:16.441Z,93288.31
2022-11-08T03:22:43.023Z,93297.66
2022-11-08T03:25:09.996Z,93305.81
2022-11-08T03:27:37.268Z,93280.75
2022-11-08T03:30:06.269Z,93291.88
2022-11-08T03:32:39.540Z,93307.44
2022-11-08T03:35:06.707Z,93301.38
2022-11-08T03:37:33.339Z,93300.63
2022-11-08T03:39:59.911Z,93294.47
2022-11-08T03:42:26.721Z,93290.06
2022-11-08T03:44:53.325Z,93271.78
2022-11-08T03:47:19.957Z,93289.19
2022-11-08T03:49:46.591Z,93283.09
2022-11-08T03:52:13.134Z,93287.66
2022-11-08T03:54:39.937Z,93285.91
2022-11-08T03:57:06.613Z,93273.78
2022-11-08T03:59:33.190Z,93262.97
2022-11-08T04:01:59.935Z,93264.00
2022-11-08T04:04:26.615Z,93258.47
2022-11-08T04:06:53.208Z,93258.91
2022-11-08T04:09:21.630Z,93238.81
2022-11-08T04:12:07.373Z,93219.16
2022-11-08T04:14:52.775Z,93224.69
2022-11-08T04:17:19.417Z,93245.03
2022-11-08T04:20:04.688Z,93221.59
2022-11-08T04:22:31.306Z,93266.03
2022-11-08T04:24:58.086Z,93266.38
2022-11-08T04:27:24.626Z,93236.84
2022-11-08T04:29:51.220Z,93262.44
2022-11-08T04:32:17.799Z,93269.13
2022-11-08T04:34:44.396Z,93255.53
2022-11-08T04:37:10.997Z,93256.38
2022-11-08T04:39:37.732Z,93266.53
2022-11-08T04:42:04.485Z,93267.81
2022-11-08T04:44:31.147Z,93239.97
2022-11-08T04:46:58.944Z,93263.34
2022-11-08T04:49:25.536Z,93268.78
2022-11-08T04:51:52.200Z,93255.47
2022-11-08T04:54:18.871Z,93273.09
2022-11-08T04:56:45.471Z,93270.97
2022-11-08T04:59:12.547Z,93264.94
2022-11-08T05:01:39.259Z,93234.13
2022-11-08T05:04:06.015Z,93269.03
2022-11-08T05:06:32.673Z,93255.81
2022-11-08T05:09:00.057Z,93255.19
2022-11-08T05:11:28.679Z,93258.47
2022-11-08T05:13:56.314Z,93252.09
2022-11-08T05:16:26.523Z,93265.34
2022-11-08T05:18:53.659Z,93261.09
2022-11-08T05:21:40.507Z,93252.78
2022-11-08T05:24:09.557Z,93233.75
2022-11-08T05:26:38.369Z,93251.59
2022-11-08T05:29:06.127Z,93256.38
2022-11-08T05:31:32.819Z,93246.19
2022-11-08T05:34:02.431Z,93238.81
2022-11-08T05:36:29.269Z,93246.38
2022-11-08T05:38:56.163Z,93245.69
2022-11-08T05:41:24.596Z,93243.72
2022-11-08T05:43:53.234Z,93253.56
2022-11-08T05:46:21.305Z,93258.31
2022-11-08T05:48:48.830Z,93253.09
2022-11-08T05:51:17.723Z,93257.34
2022-11-08T05:53:44.492Z,93260.72
2022-11-08T05:56:11.073Z,93270.50
2022-11-08T05:58:37.681Z,93263.53
2022-11-08T06:01:10.254Z,93269.63
2022-11-08T06:03:37.594Z,93257.03
2022-11-08T06:06:09.748Z,93263.41
2022-11-08T06:08:37.275Z,93255.19
2022-11-08T06:11:05.325Z,93280.88
2022-11-08T06:13:32.974Z,93287.94
2022-11-08T06:16:04.557Z,93290.56
2022-11-08T06:18:32.304Z,93291.53
2022-11-08T06:20:59.668Z,93303.50
2022-11-08T06:23:26.936Z,93314.31
2022-11-08T06:25:53.755Z,93316.16
2022-11-08T06:28:20.658Z,93299.81
2022-11-08T06:30:47.510Z,93310.69
2022-11-08T06:33:14.378Z,93331.03
2022-11-08T06:35:41.237Z,93318.97
2022-11-08T06:38:09.466Z,93343.25
2022-11-08T06:40:38.600Z,93352.53
2022-11-08T06:43:06.153Z,93329.44
2022-11-08T06:45:33.236Z,93346.16
2022-11-08T06:48:01.592Z,93349.13
2022-11-08T06:50:30.126Z,93343.97
2022-11-08T06:53:01.631Z,93352.66
2022-11-08T06:55:28.673Z,93344.94
2022-11-08T06:57:55.357Z,93345.97
2022-11-08T07:00:22.378Z,93348.53
2022-11-08T07:02:56.904Z,93344.78
2022-11-08T07:05:24.912Z,93357.91
2022-11-08T07:07:54.279Z,93350.53
2022-11-08T07:10:29.453Z,93357.41
2022-11-08T07:13:02.606Z,93324.34
2022-11-08T07:15:30.126Z,93330.28
2022-11-08T07:18:08.388Z,93341.75
2022-11-08T07:20:35.386Z,93351.28
2022-11-08T07:23:02.277Z,93334.84
2022-11-08T07:25:30.347Z,93350.25
2022-11-08T07:27:58.236Z,93326.81
2022-11-08T07:30:25.580Z,93366.66
2022-11-08T07:32:52.671Z,93353.88
2022-11-08T07:35:19.457Z,93336.31
2022-11-08T07:37:46.074Z,93357.47
2022-11-08T07:40:13.146Z,93338.75
2022-11-08T07:43:09.633Z,93354.56
2022-11-08T07:45:28.212Z,93358.31
2022-11-08T07:48:09.542Z,93357.84
2022-11-08T07:50:38.732Z,93353.19
2022-11-08T07:53:05.394Z,93351.31
2022-11-08T07:55:32.066Z,93348.28
2022-11-08T07:58:02.635Z,93344.78
2022-11-08T08:00:31.404Z,93338.19
2022-11-08T08:03:08.146Z,93337.06
2022-11-08T08:05:38.661Z,93339.03
2022-11-08T08:08:05.850Z,93338.31
2022-11-08T08:10:33.277Z,93329.97
2022-11-08T08:13:00.328Z,93306.28
2022-11-08T08:15:26.918Z,93312.94
2022-11-08T08:17:53.723Z,93327.41
2022-11-08T08:20:20.378Z,93312.59
2022-11-08T08:22:48.739Z,93327.88
2022-11-08T08:25:16.029Z,93330.09
2022-11-08T08:27:53.740Z,93319.63
2022-11-08T08:30:20.921Z,93320.53
2022-11-08T08:33:02.244Z,93307.56
2022-11-08T08:35:36.674Z,93324.00
2022-11-08T08:38:04.508Z,93323.63
2022-11-08T08:40:32.010Z,93326.44
2022-11-08T08:42:59.723Z,93320.28
2022-11-08T08:45:27.466Z,93328.69
2022-11-08T08:47:55.719Z,93322.34
2022-11-08T08:50:23.365Z,93319.16
2022-11-08T08:52:50.105Z,93320.63
2022-11-08T08:55:17.816Z,93318.31
2022-11-08T08:57:48.190Z,93321.63
2022-11-08T09:03:07.579Z,93321.63
2022-11-08T09:05:34.653Z,93310.00
2022-11-08T09:08:01.531Z,93300.22
2022-11-08T09:10:28.842Z,93327.66
2022-11-08T09:12:55.862Z,93316.34
2022-11-08T09:15:22.694Z,93313.13
2022-11-08T09:17:49.438Z,93316.72
2022-11-08T09:20:16.111Z,93315.91
2022-11-08T09:22:42.861Z,93305.00
2022-11-08T09:25:10.534Z,93334.47
2022-11-08T09:27:37.320Z,93315.97
2022-11-08T09:30:04.963Z,93331.84
2022-11-08T09:32:59.581Z,93317.56
2022-11-08T09:35:26.776Z,93317.34
2022-11-08T09:37:53.930Z,93319.94
2022-11-08T09:41:04.369Z,93317.41
2022-11-08T09:43:50.449Z,93312.84
2022-11-08T09:46:45.115Z,93312.34
2022-11-08T09:49:18.427Z,93323.03
2022-11-08T09:51:45.060Z,93319.34
2022-11-08T09:54:19.865Z,93327.72
2022-11-08T09:56:47.585Z,93328.50
2022-11-08T09:59:26.721Z,93326.00
2022-11-08T10:01:53.749Z,93334.06
2022-11-08T10:04:26.255Z,93318.41
2022-11-08T10:07:02.922Z,93321.09
2022-11-08T10:09:54.563Z,93327.50
2022-11-08T10:12:50.182Z,93322.56
2022-11-08T10:15:52.314Z,93313.19
2022-11-08T10:18:25.032Z,93325.44
2022-11-08T10:20:51.627Z,93321.88
2022-11-08T10:23:24.463Z,93314.38
2022-11-08T10:25:50.990Z,93322.31
2022-11-08T10:28:22.238Z,93317.31
2022-11-08T10:30:51.726Z,93323.84
2022-11-08T10:33:24.978Z,93314.97
2022-11-08T10:36:13.552Z,93318.84
2022-11-08T10:38:50.209Z,93314.78
2022-11-08T10:41:21.396Z,93303.19
2022-11-08T10:44:20.919Z,93294.59
2022-11-08T10:46:50.853Z,93290.53
2022-11-08T10:49:30.091Z,93284.16
2022-11-08T10:52:02.033Z,93284.38
2022-11-08T10:54:46.749Z,93276.22
2022-11-08T10:57:29.810Z,93282.38
2022-11-08T10:59:57.513Z,93262.56
2022-11-08T11:02:35.136Z,93255.84
2022-11-08T11:05:18.093Z,93260.66
2022-11-08T11:07:47.903Z,93268.06
2022-11-08T11:10:26.531Z,93251.03
2022-11-08T11:13:03.631Z,93254.28
2022-11-08T11:15:38.360Z,93266.84
2022-11-08T11:18:21.802Z,93250.91
2022-11-08T11:21:18.922Z,93243.78
2022-11-08T11:23:51.923Z,93237.50
2022-11-08T11:26:34.240Z,93232.03
2022-11-08T11:29:15.674Z,93216.09
2022-11-08T11:31:43.740Z,93232.31
2022-11-08T11:34:31.557Z,93212.75
2022-11-08T11:37:10.675Z,93217.28
2022-11-08T11:39:44.374Z,93202.13
2022-11-08T11:42:44.395Z,93209.59
2022-11-08T11:45:21.238Z,93182.44
2022-11-08T11:47:53.362Z,93205.84
2022-11-08T11:50:38.016Z,93198.44
2022-11-08T11:53:07.525Z,93201.28
2022-11-08T11:55:37.045Z,93195.31
2022-11-08T11:58:31.326Z,93194.59
2022-11-08T12:01:14.284Z,93197.41
2022-11-08T12:03:44.395Z,93194.13
2022-11-08T12:06:32.494Z,93182.13
2022-11-08T12:09:09.520Z,93180.47
2022-11-08T12:11:50.553Z,93179.13
2022-11-08T12:14:17.247Z,93172.56
2022-11-08T12:17:07.711Z,93161.81
2022-11-08T12:19:52.761Z,93164.72
2022-11-08T12:22:40.444Z,93164.22
2022-11-08T12:25:34.698Z,93156.94
2022-11-08T12:28:45.925Z,93144.22
2022-11-08T12:31:21.550Z,93146.44
2022-11-08T12:34:00.783Z,93144.25
2022-11-08T12:36:36.960Z,93144.28
2022-11-08T12:39:31.288Z,93130.25
2022-11-08T12:42:12.234Z,93136.34
2022-11-08T12:44:38.767Z,93134.69
2022-11-08T12:47:26.442Z,93131.53
2022-11-08T12:49:55.872Z,93141.47
2022-11-08T12:52:43.914Z,93128.47
2022-11-08T12:55:22.626Z,93130.47
2022-11-08T12:57:52.501Z,93116.63
2022-11-08T13:00:19.835Z,93124.56
2022-11-08T13:03:04.787Z,93126.91
2022-11-08T13:05:44.341Z,93122.97
2022-11-08T13:08:22.834Z,93115.13
2022-11-08T13:11:04.781Z,93114.69
2022-11-08T13:13:53.054Z,93116.81
2022-11-08T13:16:22.181Z,93111.38
2022-11-08T13:18:57.753Z,93105.22
2022-11-08T13:21:38.388Z,93099.59
2022-11-08T13:24:13.972Z,93099.09
2022-11-08T13:26:43.068Z,93088.94
2022-11-08T13:29:18.714Z,93109.91
2022-11-08T13:31:45.283Z,93101.75
2022-11-08T13:34:14.653Z,93106.91
2022-11-08T13:36:53.167Z,93095.38
2022-11-08T13:39:22.757Z,93088.94
2022-11-08T13:42:16.041Z,93083.53
2022-11-08T13:44:55.007Z,93075.66
2022-11-08T13:47:33.646Z,93071.31
2022-11-08T13:50:33.596Z,93083.41
2022-11-08T13:53:29.205Z,93071.34
2022-11-08T13:56:04.160Z,93083.03
2022-11-08T13:58:36.698Z,93081.91
2022-11-08T14:01:18.400Z,93076.81
2022-11-08T14:03:45.964Z,93071.78
2022-11-08T14:06:40.543Z,93074.72
2022-11-08T14:09:29.331Z,93076.41
2022-11-08T14:12:11.981Z,93066.59
2022-11-08T14:15:03.789Z,93078.50
2022-11-08T14:17:39.278Z,93069.09
2022-11-08T14:20:36.598Z,93071.41
2022-11-08T14:23:18.582Z,93064.28
2022-11-08T14:26:00.635Z,93080.13
2022-11-08T14:28:36.500Z,93081.06
2022-11-08T14:31:23.387Z,93084.00
2022-11-08T14:33:49.981Z,93085.22
2022-11-08T14:36:19.667Z,93083.53
2022-11-08T14:38:58.117Z,93085.16
2022-11-08T14:41:28.171Z,93084.84
2022-11-08T14:43:58.461Z,93070.81
2022-11-08T14:46:37.978Z,93084.16
2022-11-08T14:49:34.512Z,93100.75
2022-11-08T14:52:17.567Z,93098.31
2022-11-08T14:54:47.186Z,93108.06
2022-11-08T14:57:31.992Z,93108.97
2022-11-08T15:00:00.665Z,93101.81
2022-11-08T15:02:27.612Z,93090.22
2022-11-08T15:04:54.439Z,93100.50
2022-11-08T15:07:22.534Z,93087.50
2022-11-08T15:09:49.867Z,93092.31
2022-11-08T15:12:23.930Z,93095.41
2022-11-08T15:15:00.163Z,93074.41
2022-11-08T15:17:39.435Z,93091.09
2022-11-08T15:20:13.038Z,93092.81
2022-11-08T15:22:40.266Z,93091.84
2022-11-08T15:25:15.754Z,93094.78
2022-11-08T15:27:51.199Z,93089.28
2022-11-08T15:30:29.846Z,93092.06
2022-11-08T15:32:56.681Z,93075.47
2022-11-08T15:35:27.259Z,93089.97
2022-11-08T15:38:19.789Z,93086.53
2022-11-08T15:40:51.665Z,93095.72
2022-11-08T15:43:33.507Z,93085.78
2022-11-08T15:46:01.702Z,93088.31
2022-11-08T15:48:28.974Z,93092.03
2022-11-08T15:50:56.874Z,93095.31
2022-11-08T15:53:25.662Z,93101.44
2022-11-08T15:55:56.925Z,93109.56
2022-11-08T15:58:39.636Z,93104.50
2022-11-08T16:01:06.776Z,93095.53
2022-11-08T16:03:34.720Z,93111.59
2022-11-08T16:06:01.370Z,93092.50
2022-11-08T16:08:28.444Z,93107.94
2022-11-08T16:10:59.765Z,93108.34
2022-11-08T16:13:35.650Z,93104.88
2022-11-08T16:16:05.100Z,93095.88
2022-11-08T16:18:34.196Z,93118.50
2022-11-08T16:21:01.479Z,93124.53
2022-11-08T16:23:28.206Z,93135.09
2022-11-08T16:25:56.344Z,93138.34
2022-11-08T16:28:35.302Z,93134.38
2022-11-08T16:31:04.119Z,93127.00
2022-11-08T16:33:32.369Z,93134.69
2022-11-08T16:36:09.234Z,93148.09
2022-11-08T16:38:37.332Z,93150.56
2022-11-08T16:41:05.523Z,93144.84
2022-11-08T16:43:32.322Z,93132.56
2022-11-08T16:46:06.465Z,93120.72
2022-11-08T16:48:36.437Z,93141.34
2022-11-08T16:51:05.134Z,93140.44
2022-11-08T16:53:32.796Z,93141.09
2022-11-08T16:55:59.579Z,93139.91
2022-11-08T16:58:27.876Z,93119.88
2022-11-08T17:00:55.699Z,93136.66
2022-11-08T17:03:25.147Z,93131.56
2022-11-08T17:05:53.982Z,93134.88
2022-11-08T17:08:21.711Z,93113.44
2022-11-08T17:10:48.648Z,93134.59
2022-11-08T17:13:16.512Z,93133.72
2022-11-08T17:15:43.415Z,93138.84
2022-11-08T17:18:15.394Z,93138.19
2022-11-08T17:20:42.644Z,93121.88
2022-11-08T17:23:10.370Z,93132.28
2022-11-08T17:25:40.212Z,93136.28
2022-11-08T17:28:06.840Z,93135.53
2022-11-08T17:30:33.893Z,93135.34
2022-11-08T17:33:00.497Z,93143.47
2022-11-08T17:35:27.119Z,93139.66
2022-11-08T17:37:53.839Z,93141.41
2022-11-08T17:40:20.734Z,93140.03
2022-11-08T17:42:47.534Z,93135.69
2022-11-08T17:45:14.351Z,93128.09
2022-11-08T17:47:41.190Z,93118.69
2022-11-08T17:50:09.895Z,93154.34
2022-11-08T17:52:36.660Z,93152.09
2022-11-08T17:55:04.016Z,93143.28
2022-11-08T17:57:30.659Z,93169.84
2022-11-08T17:59:57.539Z,93172.56
2022-11-08T18:02:25.151Z,93174.38
2022-11-08T18:04:51.841Z,93165.00
2022-11-08T18:07:18.641Z,93173.25
2022-11-08T18:09:45.652Z,93153.34
2022-11-08T18:12:12.382Z,93170.09
2022-11-08T18:14:38.997Z,93178.38
2022-11-08T18:17:05.705Z,93143.97
2022-11-08T18:19:32.419Z,93179.72
2022-11-08T18:22:00.340Z,93173.09
2022-11-08T18:24:26.964Z,93172.28
2022-11-08T18:26:53.525Z,93176.56
2022-11-08T18:29:20.196Z,93169.31
2022-11-08T18:31:46.864Z,93188.66
2022-11-08T18:34:13.781Z,93189.75
2022-11-08T18:36:40.428Z,93174.47
2022-11-08T18:39:07.040Z,93173.25
2022-11-08T18:41:34.087Z,93167.78
2022-11-08T18:44:01.100Z,93164.34
2022-11-08T18:46:32.679Z,93171.88
2022-11-08T18:48:59.798Z,93167.13
2022-11-08T18:51:26.454Z,93145.63
2022-11-08T18:53:53.480Z,93162.75
2022-11-08T18:56:20.860Z,93176.88
2022-11-08T18:58:48.414Z,93173.41
2022-11-08T19:01:15.611Z,93158.16
2022-11-08T19:03:42.751Z,93168.13
2022-11-08T19:06:09.632Z,93163.88
2022-11-08T19:08:36.856Z,93176.88
2022-11-08T19:11:09.425Z,93179.09
2022-11-08T19:13:37.914Z,93173.56
2022-11-08T19:16:10.055Z,93170.78
2022-11-08T19:18:37.657Z,93157.47
2022-11-08T19:21:15.007Z,93148.31
2022-11-08T19:23:42.686Z,93152.44
2022-11-08T19:26:15.779Z,93148.97
2022-11-08T19:28:45.569Z,93143.25
2022-11-08T19:31:15.155Z,93150.59
2022-11-08T19:33:41.902Z,93130.09
2022-11-08T19:36:12.303Z,93164.25
2022-11-08T19:38:39.869Z,93164.84
2022-11-08T19:41:09.687Z,93163.31
2022-11-08T19:43:41.810Z,93153.50
2022-11-08T19:46:17.283Z,93152.44
2022-11-08T19:48:45.995Z,93151.34
2022-11-08T19:51:20.409Z,93147.00
2022-11-08T19:53:47.535Z,93153.72
2022-11-08T19:56:19.267Z,93134.28
2022-11-08T19:58:46.340Z,93150.88
2022-11-08T20:01:23.228Z,93169.81
2022-11-08T20:03:50.492Z,93172.38
2022-11-08T20:06:20.375Z,93177.94
2022-11-08T20:08:48.696Z,93178.94
2022-11-08T20:11:40.190Z,93170.91
2022-11-08T20:14:07.179Z,93183.22
2022-11-08T20:16:39.525Z,93163.25
2022-11-08T20:19:09.350Z,93180.63
2022-11-08T20:21:38.784Z,93201.50
2022-11-08T20:24:05.691Z,93195.44
2022-11-08T20:26:32.543Z,93207.03
2022-11-08T20:28:59.179Z,93207.16
2022-11-08T20:31:25.908Z,93208.53
2022-11-08T20:33:53.819Z,93206.94
2022-11-08T20:36:23.349Z,93202.16
2022-11-08T20:38:50.612Z,93208.63
2022-11-08T20:41:17.998Z,93205.72
2022-11-08T20:43:46.531Z,93202.59
2022-11-08T20:46:20.762Z,93194.66
2022-11-08T20:48:51.932Z,93185.78
2022-11-08T20:51:19.602Z,93199.00
2022-11-08T20:53:46.968Z,93196.75
2022-11-08T20:56:18.893Z,93188.75
2022-11-08T20:58:46.986Z,93192.22
2022-11-08T21:01:16.756Z,93183.06
2022-11-08T21:03:45.581Z,93183.56
2022-11-08T21:06:15.042Z,93183.06
2022-11-08T21:11:30.707Z,93183.41
2022-11-08T21:13:57.943Z,93176.50
2022-11-08T21:16:30.273Z,93173.78
2022-11-08T21:18:59.068Z,93170.22
2022-11-08T21:21:26.149Z,93176.63
2022-11-08T21:23:54.268Z,93183.22
2022-11-08T21:26:21.744Z,93173.66
2022-11-08T21:28:48.653Z,93183.38
2022-11-08T21:31:16.159Z,93177.22
2022-11-08T21:33:43.441Z,93185.50
2022-11-08T21:36:10.696Z,93162.50
2022-11-08T21:38:38.775Z,93177.91
2022-11-08T21:41:07.656Z,93179.59
2022-11-08T21:43:38.991Z,93155.75
2022-11-08T21:46:12.746Z,93170.16
2022-11-08T21:48:39.331Z,93152.00
2022-11-08T21:51:06.177Z,93172.09
2022-11-08T21:53:32.754Z,93186.59
2022-11-08T21:55:59.375Z,93192.59
2022-11-08T21:58:26.044Z,93177.69
2022-11-08T22:00:52.848Z,93202.34
2022-11-08T22:03:19.639Z,93177.00
2022-11-08T22:05:46.473Z,93202.03
2022-11-08T22:08:13.164Z,93198.75
2022-11-08T22:10:39.838Z,93195.66
2022-11-08T22:13:06.473Z,93193.75
2022-11-08T22:15:33.076Z,93200.91
2022-11-08T22:18:16.279Z,93194.66
2022-11-08T22:21:08.258Z,93193.38
2022-11-08T22:23:35.560Z,93200.03
2022-11-08T22:26:02.642Z,93199.41
2022-11-08T22:28:29.277Z,93208.63
2022-11-08T22:30:55.945Z,93174.47
2022-11-08T22:33:23.882Z,93201.34
2022-11-08T22:35:50.538Z,93190.34
2022-11-08T22:38:17.585Z,93210.88
2022-11-08T22:40:46.028Z,93213.75
2022-11-08T22:43:12.920Z,93207.47
2022-11-08T22:45:43.517Z,93206.53
2022-11-08T22:48:10.709Z,93207.69
2022-11-08T22:50:38.157Z,93191.34
2022-11-08T22:53:05.612Z,93205.91
2022-11-08T22:55:32.426Z,93195.84
2022-11-08T22:57:59.093Z,93192.78
2022-11-08T23:00:25.842Z,93199.19
2022-11-08T23:02:54.468Z,93209.03
2022-11-08T23:05:21.078Z,93212.34
2022-11-08T23:07:47.712Z,93210.13
2022-11-08T23:10:14.359Z,93203.50
2022-11-08T23:12:59.302Z,93206.84
2022-11-08T23:15:34.740Z,93201.78
2022-11-08T23:18:01.613Z,93201.41
2022-11-08T23:20:46.868Z,93179.16
2022-11-08T23:23:31.960Z,93208.59
2022-11-08T23:25:58.565Z,93198.19
2022-11-08T23:28:43.567Z,93207.66
2022-11-08T23:31:32.380Z,93209.94
2022-11-08T23:33:59.126Z,93213.91
2022-11-08T23:36:28.400Z,93214.53
2022-11-08T23:38:55.677Z,93204.84
2022-11-08T23:41:41.918Z,93213.19
2022-11-08T23:44:24.299Z,93195.53
2022-11-08T23:47:01.178Z,93195.53
2022-11-08T23:49:28.302Z,93201.31
2022-11-08T23:51:55.036Z,93203.19
2022-11-08T23:54:22.152Z,93204.03
2022-11-08T23:56:48.891Z,93202.00
2022-11-08T23:59:15.933Z,93196.50
